sensor_id;sensor_type;location;lat;lon;timestamp;pressure;altitude;pressure_sealevel;temperature;humidity
27685;BME280;46113;50.130;8.526;2022-12-07T05:15:57;100073.50;;;0.38;77.65
27685;BME280;46113;50.130;8.526;2022-12-07T05:18:23;100080.41;;;0.47;77.17
27685;BME280;46113;50.130;8.526;2022-12-07T05:20:50;100073.50;;;0.34;77.46
27685;BME280;46113;50.130;8.526;2022-12-07T05:23:17;100081.34;;;0.18;78.04
27685;BME280;46113;50.130;8.526;2022-12-07T05:25:45;100072.66;;;0.19;78.02
27685;BME280;46113;50.130;8.526;2022-12-07T05:28:11;100084.81;;;0.15;78.14
27685;BME280;46113;50.130;8.526;2022-12-07T05:30:41;100074.41;;;0.15;78.25
27685;BME280;46113;50.130;8.526;2022-12-07T05:33:08;100075.25;;;0.21;77.71
27685;BME280;46113;50.130;8.526;2022-12-07T05:35:34;100073.50;;;0.37;77.59
27685;BME280;46113;50.130;8.526;2022-12-07T05:38:01;100069.16;;;0.33;77.31
27685;BME280;46113;50.130;8.526;2022-12-07T05:40:36;100063.16;;;0.02;78.38
27685;BME280;46113;50.130;8.526;2022-12-07T05:43:03;100069.22;;;0.06;78.28
27685;BME280;46113;50.130;8.526;2022-12-07T05:45:34;100073.53;;;0.21;78.02
27685;BME280;46113;50.130;8.526;2022-12-07T05:48:01;100076.09;;;0.45;78.25
27685;BME280;46113;50.130;8.526;2022-12-07T05:50:28;100071.78;;;0.36;78.23
27685;BME280;46113;50.130;8.526;2022-12-07T05:53:00;100069.09;;;0.61;77.80
27685;BME280;46113;50.130;8.526;2022-12-07T05:55:27;100076.94;;;0.51;77.35
27685;BME280;46113;50.130;8.526;2022-12-07T05:57:54;100072.56;;;0.64;77.49
27685;BME280;46113;50.130;8.526;2022-12-07T06:00:39;100070.00;;;0.49;76.95
27685;BME280;46113;50.130;8.526;2022-12-07T06:03:05;100074.28;;;0.62;77.08
27685;BME280;46113;50.130;8.526;2022-12-07T06:05:32;100074.25;;;0.70;76.91
27685;BME280;46113;50.130;8.526;2022-12-07T06:07:59;100075.19;;;0.58;76.19
27685;BME280;46113;50.130;8.526;2022-12-07T06:10:31;100069.94;;;0.61;76.62
27685;BME280;46113;50.130;8.526;2022-12-07T06:12:57;100070.78;;;0.69;75.51
27685;BME280;46113;50.130;8.526;2022-12-07T06:15:24;100068.16;;;0.79;75.91
27685;BME280;46113;50.130;8.526;2022-12-07T06:17:51;100071.59;;;0.79;76.10
27685;BME280;46113;50.130;8.526;2022-12-07T06:20:28;100069.06;;;0.62;76.52
27685;BME280;46113;50.130;8.526;2022-12-07T06:22:56;100073.41;;;0.69;76.33
27685;BME280;46113;50.130;8.526;2022-12-07T06:25:23;100072.53;;;0.72;75.63
27685;BME280;46113;50.130;8.526;2022-12-07T06:27:50;100072.59;;;0.50;76.15
27685;BME280;46113;50.130;8.526;2022-12-07T06:30:17;100076.09;;;0.38;76.55
27685;BME280;46113;50.130;8.526;2022-12-07T06:32:44;100077.81;;;0.49;76.70
27685;BME280;46113;50.130;8.526;2022-12-07T06:35:11;100076.94;;;0.51;76.61
27685;BME280;46113;50.130;8.526;2022-12-07T06:37:37;100069.09;;;0.59;76.96
27685;BME280;46113;50.130;8.526;2022-12-07T06:40:04;100065.66;;;0.46;76.73
27685;BME280;46113;50.130;8.526;2022-12-07T06:42:33;100064.75;;;0.66;76.09
27685;BME280;46113;50.130;8.526;2022-12-07T06:45:00;100070.00;;;0.49;76.20
27685;BME280;46113;50.130;8.526;2022-12-07T06:47:26;100066.53;;;0.48;77.00
27685;BME280;46113;50.130;8.526;2022-12-07T06:50:11;100066.53;;;0.47;76.91
27685;BME280;46113;50.130;8.526;2022-12-07T06:52:37;100078.66;;;0.49;76.50
27685;BME280;46113;50.130;8.526;2022-12-07T06:55:07;100069.13;;;0.48;76.42
27685;BME280;46113;50.130;8.526;2022-12-07T06:57:34;100078.66;;;0.51;76.44
27685;BME280;46113;50.130;8.526;2022-12-07T07:00:00;100083.03;;;0.39;76.77
27685;BME280;46113;50.130;8.526;2022-12-07T07:02:28;100088.19;;;0.60;75.69
27685;BME280;46113;50.130;8.526;2022-12-07T07:04:54;100087.28;;;0.78;75.19
27685;BME280;46113;50.130;8.526;2022-12-07T07:07:22;100089.06;;;0.57;75.24
27685;BME280;46113;50.130;8.526;2022-12-07T07:09:53;100088.16;;;0.67;75.21
27685;BME280;46113;50.130;8.526;2022-12-07T07:12:19;100089.03;;;0.66;75.14
27685;BME280;46113;50.130;8.526;2022-12-07T07:14:46;100089.94;;;0.56;75.27
27685;BME280;46113;50.130;8.526;2022-12-07T07:17:13;100098.59;;;0.61;75.25
27685;BME280;46113;50.130;8.526;2022-12-07T07:19:39;100096.88;;;0.60;74.60
27685;BME280;46113;50.130;8.526;2022-12-07T07:22:07;100109.84;;;0.80;74.89
27685;BME280;46113;50.130;8.526;2022-12-07T07:24:35;100097.72;;;0.62;74.20
27685;BME280;46113;50.130;8.526;2022-12-07T07:27:02;100107.28;;;0.59;74.98
27685;BME280;46113;50.130;8.526;2022-12-07T07:29:34;100107.28;;;0.57;74.59
27685;BME280;46113;50.130;8.526;2022-12-07T07:32:01;100104.69;;;0.63;74.61
27685;BME280;46113;50.130;8.526;2022-12-07T07:34:32;100103.81;;;0.52;74.88
27685;BME280;46113;50.130;8.526;2022-12-07T07:37:01;100112.50;;;0.60;74.40
27685;BME280;46113;50.130;8.526;2022-12-07T07:39:28;100114.25;;;0.58;74.73
27685;BME280;46113;50.130;8.526;2022-12-07T07:41:54;100114.22;;;0.61;74.48
27685;BME280;46113;50.130;8.526;2022-12-07T07:44:25;100108.94;;;0.88;73.38
27685;BME280;46113;50.130;8.526;2022-12-07T07:46:59;100111.50;;;1.03;72.83
27685;BME280;46113;50.130;8.526;2022-12-07T07:49:26;100112.34;;;1.01;72.81
27685;BME280;46113;50.130;8.526;2022-12-07T07:51:54;100111.47;;;1.08;72.79
27685;BME280;46113;50.130;8.526;2022-12-07T07:54:21;100119.41;;;0.75;73.01
27685;BME280;46113;50.130;8.526;2022-12-07T07:56:48;100113.19;;;1.15;72.16
27685;BME280;46113;50.130;8.526;2022-12-07T07:59:15;100115.75;;;1.25;72.35
27685;BME280;46113;50.130;8.526;2022-12-07T08:01:42;100108.84;;;1.16;71.86
27685;BME280;46113;50.130;8.526;2022-12-07T08:04:09;100115.81;;;1.06;72.07
27685;BME280;46113;50.130;8.526;2022-12-07T08:06:36;100117.56;;;1.07;71.67
27685;BME280;46113;50.130;8.526;2022-12-07T08:09:03;100116.72;;;0.95;71.86
27685;BME280;46113;50.130;8.526;2022-12-07T08:11:32;100125.50;;;0.69;73.19
27685;BME280;46113;50.130;8.526;2022-12-07T08:13:58;100126.38;;;0.68;73.69
27685;BME280;46113;50.130;8.526;2022-12-07T08:16:25;100124.69;;;0.49;74.63
27685;BME280;46113;50.130;8.526;2022-12-07T08:19:00;100126.41;;;0.50;74.75
27685;BME280;46113;50.130;8.526;2022-12-07T08:21:27;100119.47;;;0.56;74.02
27685;BME280;46113;50.130;8.526;2022-12-07T08:23:54;100121.25;;;0.36;74.69
27685;BME280;46113;50.130;8.526;2022-12-07T08:26:20;100124.66;;;0.55;74.71
27685;BME280;46113;50.130;8.526;2022-12-07T08:28:56;100121.25;;;0.37;75.16
27685;BME280;46113;50.130;8.526;2022-12-07T08:31:23;100123.81;;;0.39;75.03
27685;BME280;46113;50.130;8.526;2022-12-07T08:33:50;100123.00;;;0.30;75.81
27685;BME280;46113;50.130;8.526;2022-12-07T08:36:43;100125.59;;;0.29;75.60
27685;BME280;46113;50.130;8.526;2022-12-07T08:39:09;100130.78;;;0.38;74.95
27685;BME280;46113;50.130;8.526;2022-12-07T08:42:24;100127.31;;;0.42;75.28
27685;BME280;46113;50.130;8.526;2022-12-07T08:44:56;100125.50;;;0.59;74.56
27685;BME280;46113;50.130;8.526;2022-12-07T08:47:24;100129.03;;;0.51;74.88
27685;BME280;46113;50.130;8.526;2022-12-07T08:49:52;100130.81;;;0.21;75.43
27685;BME280;46113;50.130;8.526;2022-12-07T08:52:19;100126.41;;;0.53;75.28
27685;BME280;46113;50.130;8.526;2022-12-07T08:54:46;100133.31;;;0.57;74.58
27685;BME280;46113;50.130;8.526;2022-12-07T08:57:13;100126.34;;;0.75;74.39
27685;BME280;46113;50.130;8.526;2022-12-07T08:59:40;100121.13;;;0.73;74.52
27685;BME280;46113;50.130;8.526;2022-12-07T09:02:07;100126.25;;;0.96;74.07
27685;BME280;46113;50.130;8.526;2022-12-07T09:04:56;100123.75;;;0.62;75.24
27685;BME280;46113;50.130;8.526;2022-12-07T09:07:23;100129.84;;;0.63;75.37
27685;BME280;46113;50.130;8.526;2022-12-07T09:09:55;100127.22;;;0.70;75.08
27685;BME280;46113;50.130;8.526;2022-12-07T09:15:48;100131.28;;;1.40;73.79
27685;BME280;46113;50.130;8.526;2022-12-07T09:18:24;100133.19;;;0.99;74.15
27685;BME280;46113;50.130;8.526;2022-12-07T09:20:52;100126.09;;;1.39;73.39
27685;BME280;46113;50.130;8.526;2022-12-07T09:23:22;100133.22;;;1.04;73.27
27685;BME280;46113;50.130;8.526;2022-12-07T09:25:49;100137.41;;;1.36;72.65
27685;BME280;46113;50.130;8.526;2022-12-07T09:28:15;100135.66;;;1.33;71.85
27685;BME280;46113;50.130;8.526;2022-12-07T09:30:46;100143.41;;;1.51;71.55
27685;BME280;46113;50.130;8.526;2022-12-07T09:33:33;100145.03;;;1.70;71.04
27685;BME280;46113;50.130;8.526;2022-12-07T09:36:00;100141.59;;;1.62;71.19
27685;BME280;46113;50.130;8.526;2022-12-07T09:38:26;100149.50;;;1.48;70.74
27685;BME280;46113;50.130;8.526;2022-12-07T09:40:54;100145.06;;;1.64;70.40
27685;BME280;46113;50.130;8.526;2022-12-07T09:43:23;100150.25;;;1.69;70.53
27685;BME280;46113;50.130;8.526;2022-12-07T09:46:15;100152.00;;;1.67;70.40
27685;BME280;46113;50.130;8.526;2022-12-07T09:48:46;100149.22;;;1.90;69.52
27685;BME280;46113;50.130;8.526;2022-12-07T09:51:23;100138.59;;;2.12;68.76
27685;BME280;46113;50.130;8.526;2022-12-07T09:53:53;100142.19;;;1.98;67.93
27685;BME280;46113;50.130;8.526;2022-12-07T09:56:21;100136.81;;;2.14;68.01
27685;BME280;46113;50.130;8.526;2022-12-07T09:58:55;100132.25;;;2.41;67.04
27685;BME280;46113;50.130;8.526;2022-12-07T10:01:23;100125.22;;;2.48;66.07
27685;BME280;46113;50.130;8.526;2022-12-07T10:03:52;100136.25;;;2.75;66.07
27685;BME280;46113;50.130;8.526;2022-12-07T10:06:19;100129.47;;;2.57;65.98
27685;BME280;46113;50.130;8.526;2022-12-07T10:08:47;100126.13;;;2.44;64.05
27685;BME280;46113;50.130;8.526;2022-12-07T10:11:14;100133.00;;;2.51;64.52
27685;BME280;46113;50.130;8.526;2022-12-07T10:13:47;100122.56;;;2.49;64.61
27685;BME280;46113;50.130;8.526;2022-12-07T10:18:55;100122.28;;;2.74;64.91
27685;BME280;46113;50.130;8.526;2022-12-07T10:21:27;100122.44;;;2.63;64.94
27685;BME280;46113;50.130;8.526;2022-12-07T10:33:52;100107.50;;;2.72;63.11
27685;BME280;46113;50.130;8.526;2022-12-07T10:36:21;100102.38;;;2.65;61.63
27685;BME280;46113;50.130;8.526;2022-12-07T10:38:59;100097.13;;;2.67;60.36
27685;BME280;46113;50.130;8.526;2022-12-07T10:41:27;100090.47;;;3.12;60.72
27685;BME280;46113;50.130;8.526;2022-12-07T10:43:56;100087.88;;;3.10;60.65
27685;BME280;46113;50.130;8.526;2022-12-07T10:46:43;100091.63;;;3.52;60.08
27685;BME280;46113;50.130;8.526;2022-12-07T11:00:25;100075.94;;;3.55;57.31
27685;BME280;46113;50.130;8.526;2022-12-07T11:11:36;100076.03;;;3.45;56.95
27685;BME280;46113;50.130;8.526;2022-12-07T11:22:30;100071.63;;;2.85;58.07
27685;BME280;46113;50.130;8.526;2022-12-07T11:25:32;100063.66;;;2.97;58.43
27685;BME280;46113;50.130;8.526;2022-12-07T11:33:53;100047.09;;;2.95;59.14
27685;BME280;46113;50.130;8.526;2022-12-07T11:36:44;100054.59;;;3.20;58.94
27685;BME280;46113;50.130;8.526;2022-12-07T11:39:25;100038.63;;;3.39;58.20
27685;BME280;46113;50.130;8.526;2022-12-07T11:42:15;100038.09;;;4.67;55.73
27685;BME280;46113;50.130;8.526;2022-12-07T11:47:47;100030.44;;;4.58;54.16
27685;BME280;46113;50.130;8.526;2022-12-07T11:56:04;100031.97;;;3.19;57.95
27685;BME280;46113;50.130;8.526;2022-12-07T12:07:36;100022.75;;;4.90;52.89
27685;BME280;46113;50.130;8.526;2022-12-07T12:13:48;100005.16;;;3.63;56.32
27685;BME280;46113;50.130;8.526;2022-12-07T12:16:54;100010.47;;;2.98;57.50
27685;BME280;46113;50.130;8.526;2022-12-07T12:19:33;100001.53;;;3.70;56.97
27685;BME280;46113;50.130;8.526;2022-12-07T12:22:15;100002.13;;;3.32;57.89
27685;BME280;46113;50.130;8.526;2022-12-07T12:24:45;100005.44;;;3.42;56.69
27685;BME280;46113;50.130;8.526;2022-12-07T12:27:24;100006.25;;;2.88;58.70
27685;BME280;46113;50.130;8.526;2022-12-07T12:30:05;99996.69;;;2.88;58.69
27685;BME280;46113;50.130;8.526;2022-12-07T12:32:41;99990.38;;;3.02;57.82
27685;BME280;46113;50.130;8.526;2022-12-07T12:38:20;99992.38;;;2.84;58.63
27685;BME280;46113;50.130;8.526;2022-12-07T12:40:42;99992.31;;;2.89;58.49
27685;BME280;46113;50.130;8.526;2022-12-07T12:43:48;99994.31;;;2.70;59.09
27685;BME280;46113;50.130;8.526;2022-12-07T12:49:37;99988.31;;;2.61;58.66
27685;BME280;46113;50.130;8.526;2022-12-07T12:57:35;99985.19;;;6.90;47.52
27685;BME280;46113;50.130;8.526;2022-12-07T13:00:21;99980.00;;;6.87;47.26
27685;BME280;46113;50.130;8.526;2022-12-07T13:02:55;99970.78;;;6.44;47.61
27685;BME280;46113;50.130;8.526;2022-12-07T13:05:28;99979.31;;;5.17;49.60
27685;BME280;46113;50.130;8.526;2022-12-07T13:08:20;99975.06;;;4.74;51.99
27685;BME280;46113;50.130;8.526;2022-12-07T13:10:49;99972.31;;;4.37;53.92
27685;BME280;46113;50.130;8.526;2022-12-07T13:15:53;99975.03;;;3.89;57.34
27685;BME280;46113;50.130;8.526;2022-12-07T13:20:59;99978.84;;;3.15;61.35
27685;BME280;46113;50.130;8.526;2022-12-07T13:29:24;99974.97;;;3.40;60.15
27685;BME280;46113;50.130;8.526;2022-12-07T13:31:53;99968.44;;;3.12;61.25
27685;BME280;46113;50.130;8.526;2022-12-07T13:34:35;99975.63;;;4.03;59.27
27685;BME280;46113;50.130;8.526;2022-12-07T13:39:49;99961.41;;;8.00;50.01
27685;BME280;46113;50.130;8.526;2022-12-07T13:44:45;99967.53;;;7.23;48.98
27685;BME280;46113;50.130;8.526;2022-12-07T13:47:16;99963.94;;;6.06;51.30
27685;BME280;46113;50.130;8.526;2022-12-07T13:49:50;99977.16;;;5.35;53.39
27685;BME280;46113;50.130;8.526;2022-12-07T13:52:23;99967.91;;;4.80;54.83
27685;BME280;46113;50.130;8.526;2022-12-07T13:57:35;99966.88;;;4.48;56.37
27685;BME280;46113;50.130;8.526;2022-12-07T14:00:29;99961.59;;;4.07;57.65
27685;BME280;46113;50.130;8.526;2022-12-07T14:02:59;99966.31;;;3.86;58.25
27685;BME280;46113;50.130;8.526;2022-12-07T14:05:28;99959.59;;;3.74;58.75
27685;BME280;46113;50.130;8.526;2022-12-07T14:07:56;99961.84;;;3.43;59.66
27685;BME280;46113;50.130;8.526;2022-12-07T14:13:34;99971.16;;;3.04;61.45
27685;BME280;46113;50.130;8.526;2022-12-07T14:16:03;99964.00;;;3.16;61.42
27685;BME280;46113;50.130;8.526;2022-12-07T14:23:39;99974.22;;;2.75;64.18
27685;BME280;46113;50.130;8.526;2022-12-07T14:26:16;99974.72;;;2.36;66.71
27685;BME280;46113;50.130;8.526;2022-12-07T14:28:45;99988.81;;;2.21;68.08
27685;BME280;46113;50.130;8.526;2022-12-07T14:31:17;99978.63;;;1.96;68.31
27685;BME280;46113;50.130;8.526;2022-12-07T14:33:59;99983.75;;;2.07;68.98
27685;BME280;46113;50.130;8.526;2022-12-07T14:36:25;99970.13;;;1.78;68.37
27685;BME280;46113;50.130;8.526;2022-12-07T14:38:53;99957.41;;;1.42;69.13
27685;BME280;46113;50.130;8.526;2022-12-07T14:41:22;99959.31;;;1.25;71.46
27685;BME280;46113;50.130;8.526;2022-12-07T14:44:11;99957.94;;;1.80;70.02
27685;BME280;46113;50.130;8.526;2022-12-07T14:46:58;99959.53;;;1.94;70.04
27685;BME280;46113;50.130;8.526;2022-12-07T14:49:45;99965.38;;;2.16;69.39
27685;BME280;46113;50.130;8.526;2022-12-07T14:52:17;99955.78;;;2.18;68.75
27685;BME280;46113;50.130;8.526;2022-12-07T14:55:13;99960.25;;;2.07;68.67
27685;BME280;46113;50.130;8.526;2022-12-07T14:57:40;99964.47;;;1.31;71.14
27685;BME280;46113;50.130;8.526;2022-12-07T15:00:06;99958.50;;;1.13;71.75
27685;BME280;46113;50.130;8.526;2022-12-07T15:02:33;99962.94;;;1.05;72.49
27685;BME280;46113;50.130;8.526;2022-12-07T15:05:00;99962.03;;;1.09;72.94
27685;BME280;46113;50.130;8.526;2022-12-07T15:07:27;99959.38;;;1.14;72.61
27685;BME280;46113;50.130;8.526;2022-12-07T15:09:54;99956.44;;;1.53;71.73
27685;BME280;46113;50.130;8.526;2022-12-07T15:12:21;99952.78;;;1.74;71.06
27685;BME280;46113;50.130;8.526;2022-12-07T15:14:47;99949.97;;;1.93;71.11
27685;BME280;46113;50.130;8.526;2022-12-07T15:17:14;99947.22;;;2.04;70.91
27685;BME280;46113;50.130;8.526;2022-12-07T15:19:57;99956.19;;;1.81;71.36
27685;BME280;46113;50.130;8.526;2022-12-07T15:22:24;99951.31;;;1.45;72.94
27685;BME280;46113;50.130;8.526;2022-12-07T15:24:50;99951.94;;;1.72;71.63
27685;BME280;46113;50.130;8.526;2022-12-07T15:27:17;99947.66;;;1.63;71.73
27685;BME280;46113;50.130;8.526;2022-12-07T15:29:43;99947.94;;;1.35;72.60
27685;BME280;46113;50.130;8.526;2022-12-07T15:32:10;99944.28;;;1.53;72.19
27685;BME280;46113;50.130;8.526;2022-12-07T15:34:37;99948.56;;;1.60;72.02
27685;BME280;46113;50.130;8.526;2022-12-07T15:37:07;99936.56;;;1.41;72.38
27685;BME280;46113;50.130;8.526;2022-12-07T15:39:35;99935.59;;;1.51;71.86
27685;BME280;46113;50.130;8.526;2022-12-07T15:42:02;99929.47;;;1.58;71.54
27685;BME280;46113;50.130;8.526;2022-12-07T15:44:29;99931.25;;;1.50;72.37
27685;BME280;46113;50.130;8.526;2022-12-07T15:47:15;99921.78;;;1.44;72.77
27685;BME280;46113;50.130;8.526;2022-12-07T15:49:41;99921.78;;;1.44;72.41
27685;BME280;46113;50.130;8.526;2022-12-07T15:52:08;99923.44;;;1.53;72.11
27685;BME280;46113;50.130;8.526;2022-12-07T15:54:34;99933.72;;;1.67;71.93
27685;BME280;46113;50.130;8.526;2022-12-07T15:57:01;99917.00;;;1.84;71.95
27685;BME280;46113;50.130;8.526;2022-12-07T15:59:28;99917.88;;;1.83;71.64
27685;BME280;46113;50.130;8.526;2022-12-07T16:01:55;99914.38;;;1.85;72.52
27685;BME280;46113;50.130;8.526;2022-12-07T16:04:22;99912.53;;;1.97;72.13
27685;BME280;46113;50.130;8.526;2022-12-07T16:06:48;99914.28;;;1.96;72.23
27685;BME280;46113;50.130;8.526;2022-12-07T16:09:17;99914.19;;;2.01;72.19
27685;BME280;46113;50.130;8.526;2022-12-07T16:11:44;99907.19;;;2.06;71.89
27685;BME280;46113;50.130;8.526;2022-12-07T16:14:11;99917.59;;;2.09;71.84
27685;BME280;46113;50.130;8.526;2022-12-07T16:16:37;99915.78;;;2.14;71.58
27685;BME280;46113;50.130;8.526;2022-12-07T16:19:06;99921.03;;;2.13;71.44
27685;BME280;46113;50.130;8.526;2022-12-07T16:21:34;99918.69;;;1.89;71.35
27685;BME280;46113;50.130;8.526;2022-12-07T16:24:31;99917.25;;;1.60;72.22
27685;BME280;46113;50.130;8.526;2022-12-07T16:27:01;99917.50;;;1.35;72.73
27685;BME280;46113;50.130;8.526;2022-12-07T16:29:27;99916.66;;;1.30;72.92
27685;BME280;46113;50.130;8.526;2022-12-07T16:31:54;99918.34;;;1.39;72.90
27685;BME280;46113;50.130;8.526;2022-12-07T16:34:20;99918.44;;;1.28;73.03
27685;BME280;46113;50.130;8.526;2022-12-07T16:36:48;99910.91;;;0.86;72.47
27685;BME280;46113;50.130;8.526;2022-12-07T16:39:32;99910.84;;;0.97;72.73
27685;BME280;46113;50.130;8.526;2022-12-07T16:41:59;99916.88;;;1.02;72.76
27685;BME280;46113;50.130;8.526;2022-12-07T16:44:26;99914.28;;;1.01;72.64
27685;BME280;46113;50.130;8.526;2022-12-07T16:46:52;99909.03;;;1.12;72.83
27685;BME280;46113;50.130;8.526;2022-12-07T16:49:19;99910.00;;;0.92;72.84
27685;BME280;46113;50.130;8.526;2022-12-07T16:51:49;99909.06;;;1.05;72.72
27685;BME280;46113;50.130;8.526;2022-12-07T16:54:36;99903.75;;;1.16;72.82
27685;BME280;46113;50.130;8.526;2022-12-07T16:57:03;99900.25;;;1.20;72.31
27685;BME280;46113;50.130;8.526;2022-12-07T16:59:30;99904.81;;;0.92;73.22
27685;BME280;46113;50.130;8.526;2022-12-07T17:01:56;99901.03;;;1.30;72.37
27685;BME280;46113;50.130;8.526;2022-12-07T17:04:23;99901.00;;;1.33;72.04
27685;BME280;46113;50.130;8.526;2022-12-07T17:06:49;99902.88;;;1.17;71.80
27685;BME280;46113;50.130;8.526;2022-12-07T17:09:16;99899.16;;;1.45;71.78
27685;BME280;46113;50.130;8.526;2022-12-07T17:11:47;99891.31;;;1.49;71.32
27685;BME280;46113;50.130;8.526;2022-12-07T17:14:13;99890.66;;;1.22;72.53
27685;BME280;46113;50.130;8.526;2022-12-07T17:16:58;99888.47;;;0.66;74.47
27685;BME280;46113;50.130;8.526;2022-12-07T17:19:26;99891.78;;;0.90;73.99
27685;BME280;46113;50.130;8.526;2022-12-07T17:21:52;99888.34;;;0.87;73.91
27685;BME280;46113;50.130;8.526;2022-12-07T17:24:19;99889.84;;;1.19;72.90
27685;BME280;46113;50.130;8.526;2022-12-07T17:26:45;99883.78;;;1.17;73.23
27685;BME280;46113;50.130;8.526;2022-12-07T17:29:14;99895.81;;;1.30;72.61
27685;BME280;46113;50.130;8.526;2022-12-07T17:31:40;99892.41;;;1.24;72.39
27685;BME280;46113;50.130;8.526;2022-12-07T17:34:15;99892.44;;;1.19;72.72
27685;BME280;46113;50.130;8.526;2022-12-07T17:36:42;99887.28;;;1.13;72.56
27685;BME280;46113;50.130;8.526;2022-12-07T17:39:09;99890.78;;;1.12;72.47
27685;BME280;46113;50.130;8.526;2022-12-07T17:41:37;99892.56;;;1.00;72.04
27685;BME280;46113;50.130;8.526;2022-12-07T17:44:22;99880.41;;;1.02;72.48
27685;BME280;46113;50.130;8.526;2022-12-07T17:46:51;99883.91;;;0.95;72.15
27685;BME280;46113;50.130;8.526;2022-12-07T17:49:23;99880.59;;;0.76;72.26
27685;BME280;46113;50.130;8.526;2022-12-07T17:51:50;99880.59;;;0.80;71.92
27685;BME280;46113;50.130;8.526;2022-12-07T17:54:35;99875.25;;;0.91;72.12
27685;BME280;46113;50.130;8.526;2022-12-07T17:57:02;99865.66;;;0.96;71.80
27685;BME280;46113;50.130;8.526;2022-12-07T17:59:29;99866.63;;;0.88;72.23
27685;BME280;46113;50.130;8.526;2022-12-07T18:01:55;99863.25;;;0.70;71.76
27685;BME280;46113;50.130;8.526;2022-12-07T18:04:22;99863.19;;;0.82;72.00
27685;BME280;46113;50.130;8.526;2022-12-07T18:06:48;99868.44;;;0.75;72.21
27685;BME280;46113;50.130;8.526;2022-12-07T18:09:18;99872.00;;;0.61;72.32
27685;BME280;46113;50.130;8.526;2022-12-07T18:11:46;99865.09;;;0.59;72.47
27685;BME280;46113;50.130;8.526;2022-12-07T18:14:12;99860.81;;;0.51;72.65
27685;BME280;46113;50.130;8.526;2022-12-07T18:16:39;99861.56;;;0.66;72.64
27685;BME280;46113;50.130;8.526;2022-12-07T18:19:12;99865.09;;;0.57;72.67
27685;BME280;46113;50.130;8.526;2022-12-07T18:21:40;99848.66;;;0.49;73.02
27685;BME280;46113;50.130;8.526;2022-12-07T18:24:09;99851.06;;;0.78;73.12
27685;BME280;46113;50.130;8.526;2022-12-07T18:26:37;99842.41;;;0.78;73.06
27685;BME280;46113;50.130;8.526;2022-12-07T18:29:12;99842.47;;;0.68;72.42
27685;BME280;46113;50.130;8.526;2022-12-07T18:31:38;99844.06;;;0.82;71.95
27685;BME280;46113;50.130;8.526;2022-12-07T18:34:10;99844.06;;;0.82;72.29
27685;BME280;46113;50.130;8.526;2022-12-07T18:36:40;99838.97;;;0.69;71.99
27685;BME280;46113;50.130;8.526;2022-12-07T18:39:13;99824.97;;;0.83;71.72
27685;BME280;46113;50.130;8.526;2022-12-07T18:41:40;99838.97;;;0.69;72.12
27685;BME280;46113;50.130;8.526;2022-12-07T18:44:07;99840.75;;;0.60;72.30
27685;BME280;46113;50.130;8.526;2022-12-07T18:46:36;99837.19;;;0.78;71.47
27685;BME280;46113;50.130;8.526;2022-12-07T18:49:08;99833.56;;;0.96;70.86
27685;BME280;46113;50.130;8.526;2022-12-07T18:51:39;99836.88;;;1.12;70.54
27685;BME280;46113;50.130;8.526;2022-12-07T18:54:06;99837.78;;;1.11;70.70
27685;BME280;46113;50.130;8.526;2022-12-07T18:56:33;99828.97;;;1.25;69.88
27685;BME280;46113;50.130;8.526;2022-12-07T18:59:00;99837.69;;;1.20;69.69
27685;BME280;46113;50.130;8.526;2022-12-07T19:01:53;99833.22;;;1.33;69.36
27685;BME280;46113;50.130;8.526;2022-12-07T19:04:20;99826.28;;;1.32;69.56
27685;BME280;46113;50.130;8.526;2022-12-07T19:06:48;99828.75;;;1.43;69.34
27685;BME280;46113;50.130;8.526;2022-12-07T19:09:15;99830.53;;;1.38;69.58
27685;BME280;46113;50.130;8.526;2022-12-07T19:11:42;99831.41;;;1.40;69.85
27685;BME280;46113;50.130;8.526;2022-12-07T19:16:50;99831.47;;;1.34;70.26
27685;BME280;46113;50.130;8.526;2022-12-07T19:19:20;99832.22;;;1.44;69.82
27685;BME280;46113;50.130;8.526;2022-12-07T19:21:48;99826.09;;;1.48;70.34
27685;BME280;46113;50.130;8.526;2022-12-07T19:24:17;99824.31;;;1.52;70.00
27685;BME280;46113;50.130;8.526;2022-12-07T19:26:49;99829.53;;;1.52;70.08
27685;BME280;46113;50.130;8.526;2022-12-07T19:29:17;99823.44;;;1.51;70.14
27685;BME280;46113;50.130;8.526;2022-12-07T19:31:45;99825.31;;;1.43;70.09
27685;BME280;46113;50.130;8.526;2022-12-07T19:34:16;99816.94;;;1.09;70.91
27685;BME280;46113;50.130;8.526;2022-12-07T19:36:44;99807.41;;;1.07;70.94
27685;BME280;46113;50.130;8.526;2022-12-07T19:39:16;99810.88;;;1.07;70.98
27685;BME280;46113;50.130;8.526;2022-12-07T19:41:43;99814.50;;;0.88;71.73
27685;BME280;46113;50.130;8.526;2022-12-07T19:44:12;99813.44;;;1.14;71.24
27685;BME280;46113;50.130;8.526;2022-12-07T19:46:47;99813.41;;;1.15;70.91
27685;BME280;46113;50.130;8.526;2022-12-07T19:49:32;99815.06;;;1.24;70.50
27685;BME280;46113;50.130;8.526;2022-12-07T19:52:02;99820.44;;;1.08;70.92
27685;BME280;46113;50.130;8.526;2022-12-07T19:54:34;99809.84;;;1.22;70.91
27685;BME280;46113;50.130;8.526;2022-12-07T19:57:02;99808.94;;;1.30;70.42
27685;BME280;46113;50.130;8.526;2022-12-07T19:59:41;99802.81;;;1.31;69.95
27685;BME280;46113;50.130;8.526;2022-12-07T20:02:12;99796.00;;;1.17;70.17
27685;BME280;46113;50.130;8.526;2022-12-07T20:04:39;99799.63;;;0.97;71.39
27685;BME280;46113;50.130;8.526;2022-12-07T20:07:06;99790.16;;;0.93;71.43
27685;BME280;46113;50.130;8.526;2022-12-07T20:09:42;99790.38;;;0.68;72.42
27685;BME280;46113;50.130;8.526;2022-12-07T20:12:09;99789.41;;;0.77;72.62
27685;BME280;46113;50.130;8.526;2022-12-07T20:14:55;99790.47;;;0.54;73.53
27685;BME280;46113;50.130;8.526;2022-12-07T20:17:25;99789.41;;;0.79;73.22
27685;BME280;46113;50.130;8.526;2022-12-07T20:19:57;99790.25;;;0.79;72.96
27685;BME280;46113;50.130;8.526;2022-12-07T20:22:27;99788.44;;;0.88;72.93
27685;BME280;46113;50.130;8.526;2022-12-07T20:24:54;99794.41;;;1.01;72.28
27685;BME280;46113;50.130;8.526;2022-12-07T20:27:23;99791.78;;;1.02;72.00
27685;BME280;46113;50.130;8.526;2022-12-07T20:29:52;99786.56;;;1.07;71.97
27685;BME280;46113;50.130;8.526;2022-12-07T20:32:19;99789.06;;;1.19;71.74